Ashippun, Wisconsin
Current Conditions -  °F | °C
As of 5:15 AM on Wednesday 26 Nov 2014 (Local Time) from KRYV Reporting Station
Clear Clear  
Wind Chill:   Ceiling: Unl
Heat Index:   Visibility: 7mi
Dew Point:   Wind: 5mph
Humidity: 93%   Direction: 100°E
Pressure: 30.12"   Gusts: NA
Location:  43.21°N, 88.52°W
Report Text: KRYV 261115Z AUTO 10004KT 7SM CLR M13/M13 A3012 RMK AO2 T11261135
Loading
Personal Weather Stations






























Interactive Weather Map New forecast layout! Learn more

10-Day Weather Forecast

Advertisements
Track Severe Weather on mobile